sensor_id;sensor_type;location;lat;lon;timestamp;temperature;humidity
10314;DHT22;5202;49.138;10.090;2024-02-15T00:01:44;8.20;99.90
10314;DHT22;5202;49.138;10.090;2024-02-15T00:04:13;8.20;99.90
10314;DHT22;5202;49.138;10.090;2024-02-15T00:06:43;8.20;99.90
10314;DHT22;5202;49.138;10.090;2024-02-15T00:09:11;8.30;99.90
10314;DHT22;5202;49.138;10.090;2024-02-15T00:11:40;8.30;99.90
10314;DHT22;5202;49.138;10.090;2024-02-15T00:14:08;8.30;99.90
10314;DHT22;5202;49.138;10.090;2024-02-15T00:16:37;8.30;99.90
10314;DHT22;5202;49.138;10.090;2024-02-15T00:19:05;8.20;99.90
10314;DHT22;5202;49.138;10.090;2024-02-15T00:21:36;8.20;99.90
10314;DHT22;5202;49.138;10.090;2024-02-15T00:24:05;8.20;99.90
10314;DHT22;5202;49.138;10.090;2024-02-15T00:26:34;8.20;99.90
10314;DHT22;5202;49.138;10.090;2024-02-15T00:29:03;8.20;99.90
10314;DHT22;5202;49.138;10.090;2024-02-15T00:31:32;8.20;99.90
10314;DHT22;5202;49.138;10.090;2024-02-15T00:34:00;8.20;99.90
10314;DHT22;5202;49.138;10.090;2024-02-15T00:36:30;8.20;99.90
10314;DHT22;5202;49.138;10.090;2024-02-15T00:39:00;8.20;99.90
10314;DHT22;5202;49.138;10.090;2024-02-15T00:41:31;8.20;99.90
10314;DHT22;5202;49.138;10.090;2024-02-15T00:44:00;8.30;99.90
10314;DHT22;5202;49.138;10.090;2024-02-15T00:46:29;8.30;99.90
10314;DHT22;5202;49.138;10.090;2024-02-15T00:48:57;8.30;99.90
10314;DHT22;5202;49.138;10.090;2024-02-15T00:51:27;8.30;99.90
10314;DHT22;5202;49.138;10.090;2024-02-15T00:53:55;8.30;99.90
10314;DHT22;5202;49.138;10.090;2024-02-15T00:56:25;8.30;99.90
10314;DHT22;5202;49.138;10.090;2024-02-15T00:58:55;8.30;99.90
10314;DHT22;5202;49.138;10.090;2024-02-15T01:01:23;8.30;99.90
10314;DHT22;5202;49.138;10.090;2024-02-15T01:03:52;8.30;99.90
10314;DHT22;5202;49.138;10.090;2024-02-15T01:06:25;8.30;99.90
10314;DHT22;5202;49.138;10.090;2024-02-15T01:08:54;8.30;99.90
10314;DHT22;5202;49.138;10.090;2024-02-15T01:11:22;8.30;99.90
10314;DHT22;5202;49.138;10.090;2024-02-15T01:13:53;8.30;99.90
10314;DHT22;5202;49.138;10.090;2024-02-15T01:16:22;8.30;99.90
10314;DHT22;5202;49.138;10.090;2024-02-15T01:18:51;8.30;99.90
10314;DHT22;5202;49.138;10.090;2024-02-15T01:21:20;8.20;99.90
10314;DHT22;5202;49.138;10.090;2024-02-15T01:23:49;8.20;99.90
10314;DHT22;5202;49.138;10.090;2024-02-15T01:26:20;8.20;99.90
10314;DHT22;5202;49.138;10.090;2024-02-15T01:28:50;8.20;99.90
10314;DHT22;5202;49.138;10.090;2024-02-15T01:31:20;8.20;99.90
10314;DHT22;5202;49.138;10.090;2024-02-15T01:33:49;8.20;99.90
10314;DHT22;5202;49.138;10.090;2024-02-15T01:36:18;8.20;99.90
10314;DHT22;5202;49.138;10.090;2024-02-15T01:38:47;8.20;99.90
10314;DHT22;5202;49.138;10.090;2024-02-15T01:41:15;8.20;99.90
10314;DHT22;5202;49.138;10.090;2024-02-15T01:43:44;8.20;99.90
10314;DHT22;5202;49.138;10.090;2024-02-15T01:46:15;8.20;99.90
10314;DHT22;5202;49.138;10.090;2024-02-15T01:48:45;8.20;99.90
10314;DHT22;5202;49.138;10.090;2024-02-15T01:51:16;8.20;99.90
10314;DHT22;5202;49.138;10.090;2024-02-15T01:53:45;8.20;99.90
10314;DHT22;5202;49.138;10.090;2024-02-15T01:56:15;8.20;99.90
10314;DHT22;5202;49.138;10.090;2024-02-15T01:58:45;8.20;99.90
10314;DHT22;5202;49.138;10.090;2024-02-15T02:01:14;8.20;99.90
10314;DHT22;5202;49.138;10.090;2024-02-15T02:03:44;8.20;99.90
10314;DHT22;5202;49.138;10.090;2024-02-15T02:06:13;8.20;99.90
10314;DHT22;5202;49.138;10.090;2024-02-15T02:08:42;8.20;99.90
10314;DHT22;5202;49.138;10.090;2024-02-15T02:11:10;8.20;99.90
10314;DHT22;5202;49.138;10.090;2024-02-15T02:13:40;8.10;99.90
10314;DHT22;5202;49.138;10.090;2024-02-15T02:16:26;8.10;99.90
10314;DHT22;5202;49.138;10.090;2024-02-15T02:18:56;8.10;99.90
10314;DHT22;5202;49.138;10.090;2024-02-15T02:21:26;8.00;99.90
10314;DHT22;5202;49.138;10.090;2024-02-15T02:23:56;7.90;99.90
10314;DHT22;5202;49.138;10.090;2024-02-15T02:26:27;7.90;99.90
10314;DHT22;5202;49.138;10.090;2024-02-15T02:28:56;7.90;99.90
10314;DHT22;5202;49.138;10.090;2024-02-15T02:31:26;7.90;99.90
10314;DHT22;5202;49.138;10.090;2024-02-15T02:33:54;7.90;99.90
10314;DHT22;5202;49.138;10.090;2024-02-15T02:36:25;7.90;99.90
10314;DHT22;5202;49.138;10.090;2024-02-15T02:38:56;8.00;99.90
10314;DHT22;5202;49.138;10.090;2024-02-15T02:41:29;7.90;99.90
10314;DHT22;5202;49.138;10.090;2024-02-15T02:43:58;7.80;99.90
10314;DHT22;5202;49.138;10.090;2024-02-15T02:46:26;7.80;99.90
10314;DHT22;5202;49.138;10.090;2024-02-15T02:48:55;7.80;99.90
10314;DHT22;5202;49.138;10.090;2024-02-15T02:51:23;7.80;99.90
10314;DHT22;5202;49.138;10.090;2024-02-15T02:53:52;7.80;99.90
10314;DHT22;5202;49.138;10.090;2024-02-15T02:56:20;7.70;99.90
10314;DHT22;5202;49.138;10.090;2024-02-15T02:58:50;7.70;99.90
10314;DHT22;5202;49.138;10.090;2024-02-15T03:01:19;7.70;99.90
10314;DHT22;5202;49.138;10.090;2024-02-15T03:03:52;7.70;99.90
10314;DHT22;5202;49.138;10.090;2024-02-15T03:06:22;7.70;99.90
10314;DHT22;5202;49.138;10.090;2024-02-15T03:08:52;7.70;99.90
10314;DHT22;5202;49.138;10.090;2024-02-15T03:11:21;7.80;99.90
10314;DHT22;5202;49.138;10.090;2024-02-15T03:13:51;7.80;99.90
10314;DHT22;5202;49.138;10.090;2024-02-15T03:16:22;7.80;99.90
10314;DHT22;5202;49.138;10.090;2024-02-15T03:18:52;7.80;99.90
10314;DHT22;5202;49.138;10.090;2024-02-15T03:21:21;7.80;99.90
10314;DHT22;5202;49.138;10.090;2024-02-15T03:23:49;7.70;99.90
10314;DHT22;5202;49.138;10.090;2024-02-15T03:26:26;7.70;99.90
10314;DHT22;5202;49.138;10.090;2024-02-15T03:28:59;7.60;99.90
10314;DHT22;5202;49.138;10.090;2024-02-15T03:31:27;7.60;99.90
10314;DHT22;5202;49.138;10.090;2024-02-15T03:33:57;7.50;99.90
10314;DHT22;5202;49.138;10.090;2024-02-15T03:36:26;7.50;99.90
10314;DHT22;5202;49.138;10.090;2024-02-15T03:38:56;7.50;99.90
10314;DHT22;5202;49.138;10.090;2024-02-15T03:41:27;7.50;99.90
10314;DHT22;5202;49.138;10.090;2024-02-15T03:43:59;7.50;99.90
10314;DHT22;5202;49.138;10.090;2024-02-15T03:46:28;7.40;99.90
10314;DHT22;5202;49.138;10.090;2024-02-15T03:48:56;7.40;99.90
10314;DHT22;5202;49.138;10.090;2024-02-15T03:51:24;7.40;99.90
10314;DHT22;5202;49.138;10.090;2024-02-15T03:53:53;7.30;99.90
10314;DHT22;5202;49.138;10.090;2024-02-15T03:56:21;7.30;99.90
10314;DHT22;5202;49.138;10.090;2024-02-15T03:58:50;7.20;99.90
10314;DHT22;5202;49.138;10.090;2024-02-15T04:01:19;7.20;99.90
10314;DHT22;5202;49.138;10.090;2024-02-15T04:03:48;7.20;99.90
10314;DHT22;5202;49.138;10.090;2024-02-15T04:06:16;7.20;99.90
10314;DHT22;5202;49.138;10.090;2024-02-15T04:08:45;7.20;99.90
10314;DHT22;5202;49.138;10.090;2024-02-15T04:11:13;7.20;99.90
10314;DHT22;5202;49.138;10.090;2024-02-15T04:13:43;7.20;99.90
10314;DHT22;5202;49.138;10.090;2024-02-15T04:16:11;7.20;99.90
10314;DHT22;5202;49.138;10.090;2024-02-15T04:18:42;7.20;99.90
10314;DHT22;5202;49.138;10.090;2024-02-15T04:21:12;7.20;99.90
10314;DHT22;5202;49.138;10.090;2024-02-15T04:23:44;7.10;99.90
10314;DHT22;5202;49.138;10.090;2024-02-15T04:26:12;7.10;99.90
10314;DHT22;5202;49.138;10.090;2024-02-15T04:28:40;7.10;99.90
10314;DHT22;5202;49.138;10.090;2024-02-15T04:31:09;7.10;99.90
10314;DHT22;5202;49.138;10.090;2024-02-15T04:33:39;7.20;99.90
10314;DHT22;5202;49.138;10.090;2024-02-15T04:36:09;7.10;99.90
10314;DHT22;5202;49.138;10.090;2024-02-15T04:38:39;7.20;99.90
10314;DHT22;5202;49.138;10.090;2024-02-15T04:41:07;7.20;99.90
10314;DHT22;5202;49.138;10.090;2024-02-15T04:43:36;7.20;99.90
10314;DHT22;5202;49.138;10.090;2024-02-15T04:46:07;7.30;99.90
10314;DHT22;5202;49.138;10.090;2024-02-15T04:48:36;7.30;99.90
10314;DHT22;5202;49.138;10.090;2024-02-15T04:51:05;7.30;99.90
10314;DHT22;5202;49.138;10.090;2024-02-15T04:53:35;7.30;99.90
10314;DHT22;5202;49.138;10.090;2024-02-15T04:56:05;7.40;99.90
10314;DHT22;5202;49.138;10.090;2024-02-15T04:58:41;7.40;99.90
10314;DHT22;5202;49.138;10.090;2024-02-15T05:01:13;7.40;99.90
10314;DHT22;5202;49.138;10.090;2024-02-15T05:03:43;7.40;99.90
10314;DHT22;5202;49.138;10.090;2024-02-15T05:06:12;7.40;99.90
10314;DHT22;5202;49.138;10.090;2024-02-15T05:08:47;7.40;99.90
10314;DHT22;5202;49.138;10.090;2024-02-15T05:11:15;7.40;99.90
10314;DHT22;5202;49.138;10.090;2024-02-15T05:13:46;7.40;99.90
10314;DHT22;5202;49.138;10.090;2024-02-15T05:16:18;7.40;99.90
10314;DHT22;5202;49.138;10.090;2024-02-15T05:18:46;7.40;99.90
10314;DHT22;5202;49.138;10.090;2024-02-15T05:21:15;7.40;99.90
10314;DHT22;5202;49.138;10.090;2024-02-15T05:23:43;7.40;99.90
10314;DHT22;5202;49.138;10.090;2024-02-15T05:26:13;7.40;99.90
10314;DHT22;5202;49.138;10.090;2024-02-15T05:28:45;7.40;99.90
10314;DHT22;5202;49.138;10.090;2024-02-15T05:31:15;7.40;99.90
10314;DHT22;5202;49.138;10.090;2024-02-15T05:33:47;7.40;99.90
10314;DHT22;5202;49.138;10.090;2024-02-15T05:36:18;7.50;99.90
10314;DHT22;5202;49.138;10.090;2024-02-15T05:38:48;7.50;99.90
10314;DHT22;5202;49.138;10.090;2024-02-15T05:41:19;7.50;99.90
10314;DHT22;5202;49.138;10.090;2024-02-15T05:43:51;7.50;99.90
10314;DHT22;5202;49.138;10.090;2024-02-15T05:46:20;7.50;99.90
10314;DHT22;5202;49.138;10.090;2024-02-15T05:48:49;7.50;99.90
10314;DHT22;5202;49.138;10.090;2024-02-15T05:51:18;7.50;99.90
10314;DHT22;5202;49.138;10.090;2024-02-15T05:53:47;7.50;99.90
10314;DHT22;5202;49.138;10.090;2024-02-15T05:56:18;7.50;99.90
10314;DHT22;5202;49.138;10.090;2024-02-15T05:58:47;7.60;99.90
10314;DHT22;5202;49.138;10.090;2024-02-15T06:01:16;7.70;99.90
10314;DHT22;5202;49.138;10.090;2024-02-15T06:03:46;7.60;99.90
10314;DHT22;5202;49.138;10.090;2024-02-15T06:06:15;7.60;99.90
10314;DHT22;5202;49.138;10.090;2024-02-15T06:08:46;7.60;99.90
10314;DHT22;5202;49.138;10.090;2024-02-15T06:11:20;7.60;99.90
10314;DHT22;5202;49.138;10.090;2024-02-15T06:13:48;7.60;99.90
10314;DHT22;5202;49.138;10.090;2024-02-15T06:16:17;7.60;99.90
10314;DHT22;5202;49.138;10.090;2024-02-15T06:18:49;7.60;99.90
10314;DHT22;5202;49.138;10.090;2024-02-15T06:21:17;7.70;99.90
10314;DHT22;5202;49.138;10.090;2024-02-15T06:23:50;7.70;99.90
10314;DHT22;5202;49.138;10.090;2024-02-15T06:26:20;7.80;99.90
10314;DHT22;5202;49.138;10.090;2024-02-15T06:28:48;7.70;99.90
10314;DHT22;5202;49.138;10.090;2024-02-15T06:31:34;7.70;99.90
10314;DHT22;5202;49.138;10.090;2024-02-15T06:34:20;7.70;99.90
10314;DHT22;5202;49.138;10.090;2024-02-15T06:37:06;7.70;99.90
10314;DHT22;5202;49.138;10.090;2024-02-15T06:39:52;7.70;99.90
10314;DHT22;5202;49.138;10.090;2024-02-15T06:42:22;7.70;99.90
10314;DHT22;5202;49.138;10.090;2024-02-15T06:44:51;7.70;99.90
10314;DHT22;5202;49.138;10.090;2024-02-15T06:47:19;7.70;99.90
10314;DHT22;5202;49.138;10.090;2024-02-15T06:49:48;7.70;99.90
10314;DHT22;5202;49.138;10.090;2024-02-15T06:52:20;7.80;99.90
10314;DHT22;5202;49.138;10.090;2024-02-15T06:54:52;7.80;99.90
10314;DHT22;5202;49.138;10.090;2024-02-15T06:57:22;7.80;99.90
10314;DHT22;5202;49.138;10.090;2024-02-15T06:59:50;7.80;99.90
10314;DHT22;5202;49.138;10.090;2024-02-15T07:02:19;8.00;99.90
10314;DHT22;5202;49.138;10.090;2024-02-15T07:04:54;7.90;99.90
10314;DHT22;5202;49.138;10.090;2024-02-15T07:07:23;7.90;99.90
10314;DHT22;5202;49.138;10.090;2024-02-15T07:09:52;8.00;99.90
10314;DHT22;5202;49.138;10.090;2024-02-15T07:12:24;7.90;99.90
10314;DHT22;5202;49.138;10.090;2024-02-15T07:14:52;8.00;99.90
10314;DHT22;5202;49.138;10.090;2024-02-15T07:17:21;8.00;99.90
10314;DHT22;5202;49.138;10.090;2024-02-15T07:19:50;8.10;99.90
10314;DHT22;5202;49.138;10.090;2024-02-15T07:22:18;8.10;99.90
10314;DHT22;5202;49.138;10.090;2024-02-15T07:24:50;8.10;99.90
10314;DHT22;5202;49.138;10.090;2024-02-15T07:27:19;8.10;99.90
10314;DHT22;5202;49.138;10.090;2024-02-15T07:29:52;8.10;99.90
10314;DHT22;5202;49.138;10.090;2024-02-15T07:32:21;8.10;99.90
10314;DHT22;5202;49.138;10.090;2024-02-15T07:34:49;8.20;99.90
10314;DHT22;5202;49.138;10.090;2024-02-15T07:37:18;8.10;99.90
10314;DHT22;5202;49.138;10.090;2024-02-15T07:39:47;8.20;99.90
10314;DHT22;5202;49.138;10.090;2024-02-15T07:42:15;8.20;99.90
10314;DHT22;5202;49.138;10.090;2024-02-15T07:44:43;8.30;99.90
10314;DHT22;5202;49.138;10.090;2024-02-15T07:47:13;8.30;99.90
10314;DHT22;5202;49.138;10.090;2024-02-15T07:49:47;8.40;99.90
10314;DHT22;5202;49.138;10.090;2024-02-15T07:52:16;8.40;99.90
10314;DHT22;5202;49.138;10.090;2024-02-15T07:54:45;8.50;99.90
10314;DHT22;5202;49.138;10.090;2024-02-15T07:57:14;8.50;99.90
10314;DHT22;5202;49.138;10.090;2024-02-15T07:59:42;8.60;99.90
10314;DHT22;5202;49.138;10.090;2024-02-15T08:02:13;8.60;99.90
10314;DHT22;5202;49.138;10.090;2024-02-15T08:04:44;8.60;99.90
10314;DHT22;5202;49.138;10.090;2024-02-15T08:07:13;8.70;99.90
10314;DHT22;5202;49.138;10.090;2024-02-15T08:09:41;8.80;99.90
10314;DHT22;5202;49.138;10.090;2024-02-15T08:12:11;8.80;99.90
10314;DHT22;5202;49.138;10.090;2024-02-15T08:14:39;8.90;99.90
10314;DHT22;5202;49.138;10.090;2024-02-15T08:17:07;8.90;99.90
10314;DHT22;5202;49.138;10.090;2024-02-15T08:19:37;8.90;99.90
10314;DHT22;5202;49.138;10.090;2024-02-15T08:22:13;9.00;99.90
10314;DHT22;5202;49.138;10.090;2024-02-15T08:24:41;9.10;99.90
10314;DHT22;5202;49.138;10.090;2024-02-15T08:27:10;9.10;99.90
10314;DHT22;5202;49.138;10.090;2024-02-15T08:29:39;9.20;99.90
10314;DHT22;5202;49.138;10.090;2024-02-15T08:32:08;9.20;99.90
10314;DHT22;5202;49.138;10.090;2024-02-15T08:34:38;9.30;99.90
10314;DHT22;5202;49.138;10.090;2024-02-15T08:37:07;9.40;99.90
10314;DHT22;5202;49.138;10.090;2024-02-15T08:39:35;9.50;99.90
10314;DHT22;5202;49.138;10.090;2024-02-15T08:42:04;9.50;99.90
10314;DHT22;5202;49.138;10.090;2024-02-15T08:44:32;9.60;99.90
10314;DHT22;5202;49.138;10.090;2024-02-15T08:47:01;9.70;99.90
10314;DHT22;5202;49.138;10.090;2024-02-15T08:49:32;9.70;99.90
10314;DHT22;5202;49.138;10.090;2024-02-15T08:52:02;9.80;99.90
10314;DHT22;5202;49.138;10.090;2024-02-15T08:54:30;9.90;99.90
10314;DHT22;5202;49.138;10.090;2024-02-15T08:56:59;10.00;99.90
10314;DHT22;5202;49.138;10.090;2024-02-15T08:59:28;10.00;99.90
10314;DHT22;5202;49.138;10.090;2024-02-15T09:01:57;10.10;99.90
10314;DHT22;5202;49.138;10.090;2024-02-15T09:04:38;10.10;99.90
10314;DHT22;5202;49.138;10.090;2024-02-15T09:07:12;10.20;99.90
10314;DHT22;5202;49.138;10.090;2024-02-15T09:09:41;10.30;99.90
10314;DHT22;5202;49.138;10.090;2024-02-15T09:12:10;10.40;99.90
10314;DHT22;5202;49.138;10.090;2024-02-15T09:14:39;10.50;99.90
10314;DHT22;5202;49.138;10.090;2024-02-15T09:17:07;10.60;99.90
10314;DHT22;5202;49.138;10.090;2024-02-15T09:19:35;10.70;99.90
10314;DHT22;5202;49.138;10.090;2024-02-15T09:22:04;10.80;99.90
10314;DHT22;5202;49.138;10.090;2024-02-15T09:24:34;10.80;99.90
10314;DHT22;5202;49.138;10.090;2024-02-15T09:27:03;11.00;99.90
10314;DHT22;5202;49.138;10.090;2024-02-15T09:29:32;11.10;99.90
10314;DHT22;5202;49.138;10.090;2024-02-15T09:32:01;11.20;99.90
10314;DHT22;5202;49.138;10.090;2024-02-15T09:34:30;11.30;99.90
10314;DHT22;5202;49.138;10.090;2024-02-15T09:37:00;11.40;99.90
10314;DHT22;5202;49.138;10.090;2024-02-15T09:39:28;11.50;99.90
10314;DHT22;5202;49.138;10.090;2024-02-15T09:41:58;11.50;99.90
10314;DHT22;5202;49.138;10.090;2024-02-15T09:44:26;11.60;99.90
10314;DHT22;5202;49.138;10.090;2024-02-15T09:47:02;11.60;99.90
10314;DHT22;5202;49.138;10.090;2024-02-15T09:49:35;11.70;99.90
10314;DHT22;5202;49.138;10.090;2024-02-15T09:52:07;11.70;99.90
10314;DHT22;5202;49.138;10.090;2024-02-15T09:54:40;11.90;99.90
10314;DHT22;5202;49.138;10.090;2024-02-15T09:57:11;11.90;99.90
10314;DHT22;5202;49.138;10.090;2024-02-15T09:59:40;11.90;99.90
10314;DHT22;5202;49.138;10.090;2024-02-15T10:02:12;12.00;99.90
10314;DHT22;5202;49.138;10.090;2024-02-15T10:04:41;12.10;99.90
10314;DHT22;5202;49.138;10.090;2024-02-15T10:07:13;12.20;99.90
10314;DHT22;5202;49.138;10.090;2024-02-15T10:09:41;12.40;99.90
10314;DHT22;5202;49.138;10.090;2024-02-15T10:12:11;12.50;99.90
10314;DHT22;5202;49.138;10.090;2024-02-15T10:14:48;12.50;99.90
10314;DHT22;5202;49.138;10.090;2024-02-15T10:17:19;12.50;99.90
10314;DHT22;5202;49.138;10.090;2024-02-15T10:20:03;12.50;99.90
10314;DHT22;5202;49.138;10.090;2024-02-15T10:22:32;12.60;99.90
10314;DHT22;5202;49.138;10.090;2024-02-15T10:25:11;12.60;99.90
10314;DHT22;5202;49.138;10.090;2024-02-15T10:27:41;12.70;99.90
10314;DHT22;5202;49.138;10.090;2024-02-15T10:30:15;12.60;99.90
10314;DHT22;5202;49.138;10.090;2024-02-15T10:32:45;12.60;99.90
10314;DHT22;5202;49.138;10.090;2024-02-15T10:35:22;12.70;99.90
10314;DHT22;5202;49.138;10.090;2024-02-15T10:37:51;12.90;99.90
10314;DHT22;5202;49.138;10.090;2024-02-15T10:40:20;13.10;99.90
10314;DHT22;5202;49.138;10.090;2024-02-15T10:42:52;13.30;99.90
10314;DHT22;5202;49.138;10.090;2024-02-15T10:45:23;13.30;99.50
10314;DHT22;5202;49.138;10.090;2024-02-15T10:47:53;13.40;99.70
10314;DHT22;5202;49.138;10.090;2024-02-15T10:50:22;13.50;99.90
10314;DHT22;5202;49.138;10.090;2024-02-15T10:52:54;13.60;99.10
10314;DHT22;5202;49.138;10.090;2024-02-15T10:55:33;13.80;99.80
10314;DHT22;5202;49.138;10.090;2024-02-15T10:58:07;13.90;99.10
10314;DHT22;5202;49.138;10.090;2024-02-15T11:00:37;14.00;99.10
10314;DHT22;5202;49.138;10.090;2024-02-15T11:03:08;14.10;98.10
10314;DHT22;5202;49.138;10.090;2024-02-15T11:05:42;14.30;98.50
10314;DHT22;5202;49.138;10.090;2024-02-15T11:08:13;14.40;97.40
10314;DHT22;5202;49.138;10.090;2024-02-15T11:10:44;14.50;98.00
10314;DHT22;5202;49.138;10.090;2024-02-15T11:13:16;14.70;98.60
10314;DHT22;5202;49.138;10.090;2024-02-15T11:15:45;14.90;97.70
10314;DHT22;5202;49.138;10.090;2024-02-15T11:18:41;15.10;97.50
10314;DHT22;5202;49.138;10.090;2024-02-15T11:21:11;15.10;95.60
10314;DHT22;5202;49.138;10.090;2024-02-15T11:23:40;14.90;94.70
10314;DHT22;5202;49.138;10.090;2024-02-15T11:26:44;14.80;94.90
10314;DHT22;5202;49.138;10.090;2024-02-15T11:29:51;14.90;94.60
10314;DHT22;5202;49.138;10.090;2024-02-15T11:32:41;15.10;96.00
10314;DHT22;5202;49.138;10.090;2024-02-15T11:35:14;15.50;96.10
10314;DHT22;5202;49.138;10.090;2024-02-15T11:37:54;15.80;95.40
10314;DHT22;5202;49.138;10.090;2024-02-15T11:40:24;16.00;94.70
10314;DHT22;5202;49.138;10.090;2024-02-15T11:42:55;16.20;95.30
10314;DHT22;5202;49.138;10.090;2024-02-15T11:45:28;16.30;95.40
10314;DHT22;5202;49.138;10.090;2024-02-15T11:48:00;16.50;94.90
10314;DHT22;5202;49.138;10.090;2024-02-15T11:50:34;16.60;94.40
10314;DHT22;5202;49.138;10.090;2024-02-15T11:53:04;16.70;92.90
10314;DHT22;5202;49.138;10.090;2024-02-15T11:55:38;16.80;93.30
10314;DHT22;5202;49.138;10.090;2024-02-15T11:58:09;17.00;94.00
10314;DHT22;5202;49.138;10.090;2024-02-15T12:00:50;17.10;93.00
10314;DHT22;5202;49.138;10.090;2024-02-15T12:03:37;17.20;92.30
10314;DHT22;5202;49.138;10.090;2024-02-15T12:06:33;17.30;93.30
10314;DHT22;5202;49.138;10.090;2024-02-15T12:09:20;17.40;92.20
10314;DHT22;5202;49.138;10.090;2024-02-15T12:12:06;17.50;92.60
10314;DHT22;5202;49.138;10.090;2024-02-15T12:14:58;17.50;91.80
10314;DHT22;5202;49.138;10.090;2024-02-15T12:17:46;17.40;90.80
10314;DHT22;5202;49.138;10.090;2024-02-15T12:20:44;17.30;91.30
10314;DHT22;5202;49.138;10.090;2024-02-15T12:23:13;17.30;91.10
10314;DHT22;5202;49.138;10.090;2024-02-15T12:25:51;17.20;89.70
10314;DHT22;5202;49.138;10.090;2024-02-15T12:28:19;17.20;90.80
10314;DHT22;5202;49.138;10.090;2024-02-15T12:30:55;17.30;90.20
10314;DHT22;5202;49.138;10.090;2024-02-15T12:33:25;17.40;91.10
10314;DHT22;5202;49.138;10.090;2024-02-15T12:36:04;17.50;91.70
10314;DHT22;5202;49.138;10.090;2024-02-15T12:38:35;17.70;91.30
10314;DHT22;5202;49.138;10.090;2024-02-15T12:41:18;17.80;90.30
10314;DHT22;5202;49.138;10.090;2024-02-15T12:43:52;17.90;90.20
10314;DHT22;5202;49.138;10.090;2024-02-15T12:46:21;17.80;90.30
10314;DHT22;5202;49.138;10.090;2024-02-15T12:48:50;17.70;88.70
10314;DHT22;5202;49.138;10.090;2024-02-15T12:51:20;17.50;89.20
10314;DHT22;5202;49.138;10.090;2024-02-15T12:53:49;17.50;88.90
10314;DHT22;5202;49.138;10.090;2024-02-15T12:56:20;17.40;88.30
10314;DHT22;5202;49.138;10.090;2024-02-15T12:58:51;17.40;90.00
10314;DHT22;5202;49.138;10.090;2024-02-15T13:01:19;17.70;89.70
10314;DHT22;5202;49.138;10.090;2024-02-15T13:03:59;17.70;89.10
10314;DHT22;5202;49.138;10.090;2024-02-15T13:06:38;18.00;90.10
10314;DHT22;5202;49.138;10.090;2024-02-15T13:09:06;18.20;87.80
10314;DHT22;5202;49.138;10.090;2024-02-15T13:11:42;18.30;89.40
10314;DHT22;5202;49.138;10.090;2024-02-15T13:14:14;18.20;87.40
10314;DHT22;5202;49.138;10.090;2024-02-15T13:16:44;18.30;88.50
10314;DHT22;5202;49.138;10.090;2024-02-15T13:19:15;18.40;87.10
10314;DHT22;5202;49.138;10.090;2024-02-15T13:21:44;18.50;86.80
10314;DHT22;5202;49.138;10.090;2024-02-15T13:24:20;18.40;85.60
10314;DHT22;5202;49.138;10.090;2024-02-15T13:26:53;18.40;85.90
10314;DHT22;5202;49.138;10.090;2024-02-15T13:29:26;18.60;87.00
10314;DHT22;5202;49.138;10.090;2024-02-15T13:31:54;18.80;85.60
10314;DHT22;5202;49.138;10.090;2024-02-15T13:34:24;18.80;83.10
10314;DHT22;5202;49.138;10.090;2024-02-15T13:36:52;18.80;83.90
10314;DHT22;5202;49.138;10.090;2024-02-15T13:39:22;18.50;84.20
10314;DHT22;5202;49.138;10.090;2024-02-15T13:41:50;18.40;86.90
10314;DHT22;5202;49.138;10.090;2024-02-15T13:44:19;18.40;86.80
10314;DHT22;5202;49.138;10.090;2024-02-15T13:46:48;18.50;87.50
10314;DHT22;5202;49.138;10.090;2024-02-15T13:49:17;18.40;87.30
10314;DHT22;5202;49.138;10.090;2024-02-15T13:51:59;18.40;87.50
10314;DHT22;5202;49.138;10.090;2024-02-15T13:54:30;18.40;86.80
10314;DHT22;5202;49.138;10.090;2024-02-15T13:57:01;18.30;86.60
10314;DHT22;5202;49.138;10.090;2024-02-15T13:59:29;18.20;87.70
10314;DHT22;5202;49.138;10.090;2024-02-15T14:01:58;18.10;87.70
10314;DHT22;5202;49.138;10.090;2024-02-15T14:04:26;18.00;87.90
10314;DHT22;5202;49.138;10.090;2024-02-15T14:06:55;18.00;88.40
10314;DHT22;5202;49.138;10.090;2024-02-15T14:09:25;17.80;88.60
10314;DHT22;5202;49.138;10.090;2024-02-15T14:11:55;17.80;89.40
10314;DHT22;5202;49.138;10.090;2024-02-15T14:14:25;17.70;88.50
10314;DHT22;5202;49.138;10.090;2024-02-15T14:16:57;17.60;89.30
10314;DHT22;5202;49.138;10.090;2024-02-15T14:19:25;17.50;89.20
10314;DHT22;5202;49.138;10.090;2024-02-15T14:21:54;17.40;89.60
10314;DHT22;5202;49.138;10.090;2024-02-15T14:24:22;17.40;90.30
10314;DHT22;5202;49.138;10.090;2024-02-15T14:26:53;17.20;90.50
10314;DHT22;5202;49.138;10.090;2024-02-15T14:29:21;17.10;91.10
10314;DHT22;5202;49.138;10.090;2024-02-15T14:31:53;16.90;91.40
10314;DHT22;5202;49.138;10.090;2024-02-15T14:34:39;16.80;90.80
10314;DHT22;5202;49.138;10.090;2024-02-15T14:37:10;16.70;91.00
10314;DHT22;5202;49.138;10.090;2024-02-15T14:39:38;16.60;91.50
10314;DHT22;5202;49.138;10.090;2024-02-15T14:42:12;16.50;91.70
10314;DHT22;5202;49.138;10.090;2024-02-15T14:44:45;16.30;92.00
10314;DHT22;5202;49.138;10.090;2024-02-15T14:47:13;16.20;92.20
10314;DHT22;5202;49.138;10.090;2024-02-15T14:49:41;16.10;92.70
10314;DHT22;5202;49.138;10.090;2024-02-15T14:52:10;15.90;93.10
10314;DHT22;5202;49.138;10.090;2024-02-15T14:54:39;15.70;93.00
10314;DHT22;5202;49.138;10.090;2024-02-15T14:57:08;15.60;93.20
10314;DHT22;5202;49.138;10.090;2024-02-15T14:59:38;15.60;93.30
10314;DHT22;5202;49.138;10.090;2024-02-15T15:02:07;15.60;93.80
10314;DHT22;5202;49.138;10.090;2024-02-15T15:04:38;15.60;93.80
10314;DHT22;5202;49.138;10.090;2024-02-15T15:07:35;15.60;93.60
10314;DHT22;5202;49.138;10.090;2024-02-15T15:10:21;15.50;94.00
10314;DHT22;5202;49.138;10.090;2024-02-15T15:13:07;15.40;93.70
10314;DHT22;5202;49.138;10.090;2024-02-15T15:15:38;15.30;93.80
10314;DHT22;5202;49.138;10.090;2024-02-15T15:18:07;15.30;94.20
10314;DHT22;5202;49.138;10.090;2024-02-15T15:20:41;15.30;94.20
10314;DHT22;5202;49.138;10.090;2024-02-15T15:23:10;15.20;94.00
10314;DHT22;5202;49.138;10.090;2024-02-15T15:25:39;15.10;94.30
10314;DHT22;5202;49.138;10.090;2024-02-15T15:28:08;15.10;94.40
10314;DHT22;5202;49.138;10.090;2024-02-15T15:30:38;15.00;94.50
10314;DHT22;5202;49.138;10.090;2024-02-15T15:33:07;15.00;94.60
10314;DHT22;5202;49.138;10.090;2024-02-15T15:35:36;14.90;94.80
10314;DHT22;5202;49.138;10.090;2024-02-15T15:38:05;14.90;94.80
10314;DHT22;5202;49.138;10.090;2024-02-15T15:40:34;14.70;94.90
10314;DHT22;5202;49.138;10.090;2024-02-15T15:43:02;14.60;95.00
10314;DHT22;5202;49.138;10.090;2024-02-15T15:45:33;14.60;95.20
10314;DHT22;5202;49.138;10.090;2024-02-15T15:48:04;14.50;95.50
10314;DHT22;5202;49.138;10.090;2024-02-15T15:50:33;14.40;95.60
10314;DHT22;5202;49.138;10.090;2024-02-15T15:53:02;14.40;95.50
10314;DHT22;5202;49.138;10.090;2024-02-15T15:55:31;14.40;95.60
10314;DHT22;5202;49.138;10.090;2024-02-15T15:58:00;14.30;95.70
10314;DHT22;5202;49.138;10.090;2024-02-15T16:00:29;14.20;95.70
10314;DHT22;5202;49.138;10.090;2024-02-15T16:03:02;14.20;95.80
10314;DHT22;5202;49.138;10.090;2024-02-15T16:05:32;14.10;96.10